sensor_id;sensor_type;location;lat;lon;timestamp;temperature;humidity
67899;DHT22;54699;51.796;10.956;2024-01-10T00:00:19;14.30;44.30
67899;DHT22;54699;51.796;10.956;2024-01-10T00:02:46;14.30;44.20
67899;DHT22;54699;51.796;10.956;2024-01-10T00:05:13;14.30;44.30
67899;DHT22;54699;51.796;10.956;2024-01-10T00:07:40;14.30;44.30
67899;DHT22;54699;51.796;10.956;2024-01-10T00:10:08;14.30;44.30
67899;DHT22;54699;51.796;10.956;2024-01-10T00:12:35;14.30;44.30
67899;DHT22;54699;51.796;10.956;2024-01-10T00:15:02;14.30;44.30
67899;DHT22;54699;51.796;10.956;2024-01-10T00:17:30;14.30;44.30
67899;DHT22;54699;51.796;10.956;2024-01-10T00:19:56;14.30;44.20
67899;DHT22;54699;51.796;10.956;2024-01-10T00:22:23;14.30;44.20
67899;DHT22;54699;51.796;10.956;2024-01-10T00:24:50;14.30;44.30
67899;DHT22;54699;51.796;10.956;2024-01-10T00:27:18;14.30;44.20
67899;DHT22;54699;51.796;10.956;2024-01-10T00:29:45;14.30;44.20
67899;DHT22;54699;51.796;10.956;2024-01-10T00:32:12;14.30;44.30
67899;DHT22;54699;51.796;10.956;2024-01-10T00:34:39;14.30;44.30
67899;DHT22;54699;51.796;10.956;2024-01-10T00:37:05;14.20;44.20
67899;DHT22;54699;51.796;10.956;2024-01-10T00:39:32;14.20;44.20
67899;DHT22;54699;51.796;10.956;2024-01-10T00:41:59;14.20;44.20
67899;DHT22;54699;51.796;10.956;2024-01-10T00:44:27;14.20;44.30
67899;DHT22;54699;51.796;10.956;2024-01-10T00:46:54;14.20;44.20
67899;DHT22;54699;51.796;10.956;2024-01-10T00:49:21;14.20;44.30
67899;DHT22;54699;51.796;10.956;2024-01-10T00:51:47;14.20;44.20
67899;DHT22;54699;51.796;10.956;2024-01-10T00:54:14;14.20;44.20
67899;DHT22;54699;51.796;10.956;2024-01-10T00:56:41;14.30;44.20
67899;DHT22;54699;51.796;10.956;2024-01-10T00:59:08;14.20;44.20
67899;DHT22;54699;51.796;10.956;2024-01-10T01:01:36;14.20;44.10
67899;DHT22;54699;51.796;10.956;2024-01-10T01:04:03;14.20;44.20
67899;DHT22;54699;51.796;10.956;2024-01-10T01:06:30;14.20;44.20
67899;DHT22;54699;51.796;10.956;2024-01-10T01:08:57;14.20;44.20
67899;DHT22;54699;51.796;10.956;2024-01-10T01:11:24;14.20;44.20
67899;DHT22;54699;51.796;10.956;2024-01-10T01:13:51;14.20;44.10
67899;DHT22;54699;51.796;10.956;2024-01-10T01:16:18;14.20;44.10
67899;DHT22;54699;51.796;10.956;2024-01-10T01:18:46;14.20;44.20
67899;DHT22;54699;51.796;10.956;2024-01-10T01:21:13;14.20;44.10
67899;DHT22;54699;51.796;10.956;2024-01-10T01:23:39;14.20;44.20
67899;DHT22;54699;51.796;10.956;2024-01-10T01:26:06;14.20;44.10
67899;DHT22;54699;51.796;10.956;2024-01-10T01:28:33;14.20;44.10
67899;DHT22;54699;51.796;10.956;2024-01-10T01:31:00;14.20;44.20
67899;DHT22;54699;51.796;10.956;2024-01-10T01:33:27;14.20;44.10
67899;DHT22;54699;51.796;10.956;2024-01-10T01:35:55;14.20;44.20
67899;DHT22;54699;51.796;10.956;2024-01-10T01:38:22;14.20;44.10
67899;DHT22;54699;51.796;10.956;2024-01-10T01:40:49;14.20;45.00
67899;DHT22;54699;51.796;10.956;2024-01-10T01:43:17;14.10;44.10
67899;DHT22;54699;51.796;10.956;2024-01-10T01:45:45;14.10;44.10
67899;DHT22;54699;51.796;10.956;2024-01-10T01:48:12;14.10;44.20
67899;DHT22;54699;51.796;10.956;2024-01-10T01:50:40;14.10;44.20
67899;DHT22;54699;51.796;10.956;2024-01-10T01:53:08;14.10;44.10
67899;DHT22;54699;51.796;10.956;2024-01-10T01:55:35;14.10;44.20
67899;DHT22;54699;51.796;10.956;2024-01-10T01:58:02;14.10;44.10
67899;DHT22;54699;51.796;10.956;2024-01-10T02:00:29;14.20;44.20
67899;DHT22;54699;51.796;10.956;2024-01-10T02:02:57;14.10;44.20
67899;DHT22;54699;51.796;10.956;2024-01-10T02:05:25;14.10;44.10
67899;DHT22;54699;51.796;10.956;2024-01-10T02:07:52;14.10;44.10
67899;DHT22;54699;51.796;10.956;2024-01-10T02:10:22;14.10;44.10
67899;DHT22;54699;51.796;10.956;2024-01-10T02:12:49;14.10;44.10
67899;DHT22;54699;51.796;10.956;2024-01-10T02:15:16;14.10;44.10
67899;DHT22;54699;51.796;10.956;2024-01-10T02:17:43;14.10;44.10
67899;DHT22;54699;51.796;10.956;2024-01-10T02:20:10;14.10;44.10
67899;DHT22;54699;51.796;10.956;2024-01-10T02:22:37;14.10;44.10
67899;DHT22;54699;51.796;10.956;2024-01-10T02:25:06;14.10;44.10
67899;DHT22;54699;51.796;10.956;2024-01-10T02:27:34;14.10;44.10
67899;DHT22;54699;51.796;10.956;2024-01-10T02:30:02;14.10;44.10
67899;DHT22;54699;51.796;10.956;2024-01-10T02:32:29;14.10;44.10
67899;DHT22;54699;51.796;10.956;2024-01-10T02:34:57;14.10;44.10
67899;DHT22;54699;51.796;10.956;2024-01-10T02:37:23;14.10;44.20
67899;DHT22;54699;51.796;10.956;2024-01-10T02:39:50;14.00;44.00
67899;DHT22;54699;51.796;10.956;2024-01-10T02:42:18;14.00;44.00
67899;DHT22;54699;51.796;10.956;2024-01-10T02:44:45;14.10;44.10
67899;DHT22;54699;51.796;10.956;2024-01-10T02:47:12;14.00;44.00
67899;DHT22;54699;51.796;10.956;2024-01-10T02:49:39;14.00;44.00
67899;DHT22;54699;51.796;10.956;2024-01-10T02:52:05;14.00;44.00
67899;DHT22;54699;51.796;10.956;2024-01-10T02:54:32;14.00;44.00
67899;DHT22;54699;51.796;10.956;2024-01-10T02:56:59;14.00;44.00
67899;DHT22;54699;51.796;10.956;2024-01-10T02:59:27;14.00;44.00
67899;DHT22;54699;51.796;10.956;2024-01-10T03:01:54;14.00;44.00
67899;DHT22;54699;51.796;10.956;2024-01-10T03:04:23;14.00;44.00
67899;DHT22;54699;51.796;10.956;2024-01-10T03:06:50;14.00;44.00
67899;DHT22;54699;51.796;10.956;2024-01-10T03:09:17;14.00;44.00
67899;DHT22;54699;51.796;10.956;2024-01-10T03:11:44;14.00;44.10
67899;DHT22;54699;51.796;10.956;2024-01-10T03:14:11;14.00;44.00
67899;DHT22;54699;51.796;10.956;2024-01-10T03:16:39;14.00;44.00
67899;DHT22;54699;51.796;10.956;2024-01-10T03:19:06;14.00;44.00
67899;DHT22;54699;51.796;10.956;2024-01-10T03:21:32;14.00;44.10
67899;DHT22;54699;51.796;10.956;2024-01-10T03:24:00;14.00;44.00
67899;DHT22;54699;51.796;10.956;2024-01-10T03:26:27;14.00;44.00
67899;DHT22;54699;51.796;10.956;2024-01-10T03:28:55;14.00;44.00
67899;DHT22;54699;51.796;10.956;2024-01-10T03:31:23;14.00;44.00
67899;DHT22;54699;51.796;10.956;2024-01-10T03:33:51;14.00;44.00
67899;DHT22;54699;51.796;10.956;2024-01-10T03:36:18;14.00;44.00
67899;DHT22;54699;51.796;10.956;2024-01-10T03:38:45;13.90;43.90
67899;DHT22;54699;51.796;10.956;2024-01-10T03:41:12;14.00;44.00
67899;DHT22;54699;51.796;10.956;2024-01-10T03:43:39;14.00;44.00
67899;DHT22;54699;51.796;10.956;2024-01-10T03:46:06;13.90;43.90
67899;DHT22;54699;51.796;10.956;2024-01-10T03:48:33;14.00;44.00
67899;DHT22;54699;51.796;10.956;2024-01-10T03:51:04;13.90;43.90
67899;DHT22;54699;51.796;10.956;2024-01-10T03:53:31;13.90;43.90
67899;DHT22;54699;51.796;10.956;2024-01-10T03:55:58;14.00;44.00
67899;DHT22;54699;51.796;10.956;2024-01-10T03:58:25;14.00;44.00
67899;DHT22;54699;51.796;10.956;2024-01-10T04:00:51;14.00;44.00
67899;DHT22;54699;51.796;10.956;2024-01-10T04:03:18;13.90;43.80
67899;DHT22;54699;51.796;10.956;2024-01-10T04:05:45;13.90;43.90
67899;DHT22;54699;51.796;10.956;2024-01-10T04:08:13;13.90;43.90
67899;DHT22;54699;51.796;10.956;2024-01-10T04:10:40;13.90;43.90
67899;DHT22;54699;51.796;10.956;2024-01-10T04:13:07;13.90;43.90
67899;DHT22;54699;51.796;10.956;2024-01-10T04:15:34;13.90;43.90
67899;DHT22;54699;51.796;10.956;2024-01-10T04:18:01;13.90;43.90
67899;DHT22;54699;51.796;10.956;2024-01-10T04:20:28;13.90;44.00
67899;DHT22;54699;51.796;10.956;2024-01-10T04:22:54;13.90;43.90
67899;DHT22;54699;51.796;10.956;2024-01-10T04:25:23;13.90;43.90
67899;DHT22;54699;51.796;10.956;2024-01-10T04:27:49;13.90;43.90
67899;DHT22;54699;51.796;10.956;2024-01-10T04:30:16;13.90;43.90
67899;DHT22;54699;51.796;10.956;2024-01-10T04:32:43;13.90;43.90
67899;DHT22;54699;51.796;10.956;2024-01-10T04:35:10;13.90;43.90
67899;DHT22;54699;51.796;10.956;2024-01-10T04:37:37;13.90;43.90
67899;DHT22;54699;51.796;10.956;2024-01-10T04:40:04;13.90;43.90
67899;DHT22;54699;51.796;10.956;2024-01-10T04:42:33;13.90;43.90
67899;DHT22;54699;51.796;10.956;2024-01-10T04:45:00;13.90;43.80
67899;DHT22;54699;51.796;10.956;2024-01-10T04:47:27;13.90;43.90
67899;DHT22;54699;51.796;10.956;2024-01-10T04:49:54;13.80;43.80
67899;DHT22;54699;51.796;10.956;2024-01-10T04:52:21;13.90;43.80
67899;DHT22;54699;51.796;10.956;2024-01-10T04:54:48;13.90;43.80
67899;DHT22;54699;51.796;10.956;2024-01-10T04:57:15;13.90;43.90
67899;DHT22;54699;51.796;10.956;2024-01-10T04:59:43;13.80;43.80
67899;DHT22;54699;51.796;10.956;2024-01-10T05:02:10;13.80;43.80
67899;DHT22;54699;51.796;10.956;2024-01-10T05:04:37;13.80;43.70
67899;DHT22;54699;51.796;10.956;2024-01-10T05:07:04;13.80;43.80
67899;DHT22;54699;51.796;10.956;2024-01-10T05:09:31;13.80;43.80
67899;DHT22;54699;51.796;10.956;2024-01-10T05:11:57;13.80;43.80
67899;DHT22;54699;51.796;10.956;2024-01-10T05:14:24;13.80;43.90
67899;DHT22;54699;51.796;10.956;2024-01-10T05:16:53;13.80;43.80
67899;DHT22;54699;51.796;10.956;2024-01-10T05:19:19;13.80;43.80
67899;DHT22;54699;51.796;10.956;2024-01-10T05:21:46;13.80;43.70
67899;DHT22;54699;51.796;10.956;2024-01-10T05:24:14;13.80;43.70
67899;DHT22;54699;51.796;10.956;2024-01-10T05:26:41;13.80;43.70
67899;DHT22;54699;51.796;10.956;2024-01-10T05:29:07;13.80;43.80
67899;DHT22;54699;51.796;10.956;2024-01-10T05:31:34;13.80;43.70
67899;DHT22;54699;51.796;10.956;2024-01-10T05:34:02;13.80;43.60
67899;DHT22;54699;51.796;10.956;2024-01-10T05:36:30;13.80;43.60
67899;DHT22;54699;51.796;10.956;2024-01-10T05:38:59;13.80;43.60
67899;DHT22;54699;51.796;10.956;2024-01-10T05:41:26;13.80;43.50
67899;DHT22;54699;51.796;10.956;2024-01-10T05:43:52;13.80;43.70
67899;DHT22;54699;51.796;10.956;2024-01-10T05:46:19;13.70;43.70
67899;DHT22;54699;51.796;10.956;2024-01-10T05:48:46;13.70;43.60
67899;DHT22;54699;51.796;10.956;2024-01-10T05:51:15;13.70;42.70
67899;DHT22;54699;51.796;10.956;2024-01-10T05:53:42;13.70;43.10
67899;DHT22;54699;51.796;10.956;2024-01-10T05:56:09;13.60;43.00
67899;DHT22;54699;51.796;10.956;2024-01-10T05:58:37;13.70;41.80
67899;DHT22;54699;51.796;10.956;2024-01-10T06:01:05;13.60;41.70
67899;DHT22;54699;51.796;10.956;2024-01-10T06:03:35;13.60;42.00
67899;DHT22;54699;51.796;10.956;2024-01-10T06:06:03;13.60;40.90
67899;DHT22;54699;51.796;10.956;2024-01-10T06:08:35;13.70;41.10
67899;DHT22;54699;51.796;10.956;2024-01-10T06:11:02;13.60;40.70
67899;DHT22;54699;51.796;10.956;2024-01-10T06:13:31;13.60;40.40
67899;DHT22;54699;51.796;10.956;2024-01-10T06:15:58;13.60;39.90
67899;DHT22;54699;51.796;10.956;2024-01-10T06:18:27;13.60;39.60
67899;DHT22;54699;51.796;10.956;2024-01-10T06:20:54;13.60;41.10
67899;DHT22;54699;51.796;10.956;2024-01-10T06:23:22;13.60;41.50
67899;DHT22;54699;51.796;10.956;2024-01-10T06:25:50;13.60;41.50
67899;DHT22;54699;51.796;10.956;2024-01-10T06:28:22;13.70;41.90
67899;DHT22;54699;51.796;10.956;2024-01-10T06:30:49;13.60;41.90
67899;DHT22;54699;51.796;10.956;2024-01-10T06:33:18;13.60;41.90
67899;DHT22;54699;51.796;10.956;2024-01-10T06:35:45;13.70;41.70
67899;DHT22;54699;51.796;10.956;2024-01-10T06:38:13;13.60;40.90
67899;DHT22;54699;51.796;10.956;2024-01-10T06:40:42;13.60;40.90
67899;DHT22;54699;51.796;10.956;2024-01-10T06:43:11;13.60;40.00
67899;DHT22;54699;51.796;10.956;2024-01-10T06:45:39;13.60;41.10
67899;DHT22;54699;51.796;10.956;2024-01-10T06:48:07;13.60;41.50
67899;DHT22;54699;51.796;10.956;2024-01-10T06:50:35;13.60;41.00
67899;DHT22;54699;51.796;10.956;2024-01-10T06:53:17;13.50;41.20
67899;DHT22;54699;51.796;10.956;2024-01-10T06:55:44;13.60;39.90
67899;DHT22;54699;51.796;10.956;2024-01-10T06:58:13;13.50;38.20
67899;DHT22;54699;51.796;10.956;2024-01-10T07:00:40;13.40;39.50
67899;DHT22;54699;51.796;10.956;2024-01-10T07:03:08;13.50;40.50
67899;DHT22;54699;51.796;10.956;2024-01-10T07:05:36;13.60;40.00
67899;DHT22;54699;51.796;10.956;2024-01-10T07:08:03;13.60;39.60
67899;DHT22;54699;51.796;10.956;2024-01-10T07:10:31;13.50;36.40
67899;DHT22;54699;51.796;10.956;2024-01-10T07:12:59;13.50;38.70
67899;DHT22;54699;51.796;10.956;2024-01-10T07:15:31;13.40;39.30
67899;DHT22;54699;51.796;10.956;2024-01-10T07:17:58;13.60;40.60
67899;DHT22;54699;51.796;10.956;2024-01-10T07:20:26;13.60;40.60
67899;DHT22;54699;51.796;10.956;2024-01-10T07:22:53;13.70;40.80
67899;DHT22;54699;51.796;10.956;2024-01-10T07:25:20;13.70;40.80
67899;DHT22;54699;51.796;10.956;2024-01-10T07:27:50;13.80;40.80
67899;DHT22;54699;51.796;10.956;2024-01-10T07:30:21;13.80;40.70
67899;DHT22;54699;51.796;10.956;2024-01-10T07:32:49;13.80;40.60
67899;DHT22;54699;51.796;10.956;2024-01-10T07:35:20;13.70;40.60
67899;DHT22;54699;51.796;10.956;2024-01-10T07:37:47;13.80;40.80
67899;DHT22;54699;51.796;10.956;2024-01-10T07:40:17;13.70;40.80
67899;DHT22;54699;51.796;10.956;2024-01-10T07:42:44;13.70;41.50
67899;DHT22;54699;51.796;10.956;2024-01-10T07:45:11;13.70;41.50
67899;DHT22;54699;51.796;10.956;2024-01-10T07:47:38;13.70;41.40
67899;DHT22;54699;51.796;10.956;2024-01-10T07:50:07;13.70;41.40
67899;DHT22;54699;51.796;10.956;2024-01-10T07:52:38;13.60;41.60
67899;DHT22;54699;51.796;10.956;2024-01-10T07:55:05;13.70;42.50
67899;DHT22;54699;51.796;10.956;2024-01-10T07:57:33;13.70;41.10
67899;DHT22;54699;51.796;10.956;2024-01-10T08:00:02;13.60;41.20
67899;DHT22;54699;51.796;10.956;2024-01-10T08:02:30;13.70;41.30
67899;DHT22;54699;51.796;10.956;2024-01-10T08:05:00;13.70;41.60
67899;DHT22;54699;51.796;10.956;2024-01-10T08:07:32;13.70;41.50
67899;DHT22;54699;51.796;10.956;2024-01-10T08:10:00;13.70;41.60
67899;DHT22;54699;51.796;10.956;2024-01-10T08:12:29;13.70;42.50
67899;DHT22;54699;51.796;10.956;2024-01-10T08:14:57;13.80;41.60
67899;DHT22;54699;51.796;10.956;2024-01-10T08:17:27;13.70;41.70
67899;DHT22;54699;51.796;10.956;2024-01-10T08:19:54;13.80;41.80
67899;DHT22;54699;51.796;10.956;2024-01-10T08:22:21;13.80;42.60
67899;DHT22;54699;51.796;10.956;2024-01-10T08:24:50;13.80;41.80
67899;DHT22;54699;51.796;10.956;2024-01-10T08:27:17;13.80;41.90
67899;DHT22;54699;51.796;10.956;2024-01-10T08:29:45;13.80;41.90
67899;DHT22;54699;51.796;10.956;2024-01-10T08:32:12;13.80;41.90
67899;DHT22;54699;51.796;10.956;2024-01-10T08:34:40;13.80;42.20
67899;DHT22;54699;51.796;10.956;2024-01-10T08:37:11;13.80;41.60
67899;DHT22;54699;51.796;10.956;2024-01-10T08:39:39;13.80;41.00
67899;DHT22;54699;51.796;10.956;2024-01-10T08:42:28;13.80;39.90
67899;DHT22;54699;51.796;10.956;2024-01-10T08:44:55;13.80;40.30
67899;DHT22;54699;51.796;10.956;2024-01-10T08:47:26;13.90;42.30
67899;DHT22;54699;51.796;10.956;2024-01-10T08:49:57;14.00;41.80
67899;DHT22;54699;51.796;10.956;2024-01-10T08:52:25;14.10;42.00
67899;DHT22;54699;51.796;10.956;2024-01-10T08:54:58;14.20;42.50
67899;DHT22;54699;51.796;10.956;2024-01-10T08:57:42;14.30;42.90
67899;DHT22;54699;51.796;10.956;2024-01-10T09:00:33;14.30;43.00
67899;DHT22;54699;51.796;10.956;2024-01-10T09:03:02;14.40;43.20
67899;DHT22;54699;51.796;10.956;2024-01-10T09:05:30;14.50;42.60
67899;DHT22;54699;51.796;10.956;2024-01-10T09:07:58;14.40;42.20
67899;DHT22;54699;51.796;10.956;2024-01-10T09:10:25;14.40;41.50
67899;DHT22;54699;51.796;10.956;2024-01-10T09:12:54;14.30;41.30
67899;DHT22;54699;51.796;10.956;2024-01-10T09:15:21;14.40;40.60
67899;DHT22;54699;51.796;10.956;2024-01-10T09:17:48;14.30;41.50
67899;DHT22;54699;51.796;10.956;2024-01-10T09:20:17;14.30;42.50
67899;DHT22;54699;51.796;10.956;2024-01-10T09:22:45;14.40;42.40
67899;DHT22;54699;51.796;10.956;2024-01-10T09:25:17;14.40;42.00
67899;DHT22;54699;51.796;10.956;2024-01-10T09:27:44;14.40;42.40
67899;DHT22;54699;51.796;10.956;2024-01-10T09:30:14;14.40;42.00
67899;DHT22;54699;51.796;10.956;2024-01-10T09:32:43;14.40;42.10
67899;DHT22;54699;51.796;10.956;2024-01-10T09:35:11;14.40;42.50
67899;DHT22;54699;51.796;10.956;2024-01-10T09:37:39;14.40;42.30
67899;DHT22;54699;51.796;10.956;2024-01-10T09:40:06;14.40;42.00
67899;DHT22;54699;51.796;10.956;2024-01-10T09:42:34;14.40;42.20
67899;DHT22;54699;51.796;10.956;2024-01-10T09:45:03;14.40;42.10
67899;DHT22;54699;51.796;10.956;2024-01-10T09:47:33;14.40;42.10
67899;DHT22;54699;51.796;10.956;2024-01-10T09:50:03;14.40;41.90
67899;DHT22;54699;51.796;10.956;2024-01-10T09:52:32;14.50;43.10
67899;DHT22;54699;51.796;10.956;2024-01-10T09:55:06;14.50;41.70
67899;DHT22;54699;51.796;10.956;2024-01-10T09:57:39;14.50;42.00
67899;DHT22;54699;51.796;10.956;2024-01-10T10:00:10;14.50;41.20
67899;DHT22;54699;51.796;10.956;2024-01-10T10:02:43;14.50;41.90
67899;DHT22;54699;51.796;10.956;2024-01-10T10:05:13;14.60;42.10
67899;DHT22;54699;51.796;10.956;2024-01-10T10:07:48;14.50;42.00
67899;DHT22;54699;51.796;10.956;2024-01-10T10:10:23;14.50;41.10
67899;DHT22;54699;51.796;10.956;2024-01-10T10:12:50;14.60;41.30
67899;DHT22;54699;51.796;10.956;2024-01-10T10:15:22;14.60;40.90
67899;DHT22;54699;51.796;10.956;2024-01-10T10:17:56;14.50;41.70
67899;DHT22;54699;51.796;10.956;2024-01-10T10:20:23;14.60;40.80
67899;DHT22;54699;51.796;10.956;2024-01-10T10:22:58;14.60;41.20
67899;DHT22;54699;51.796;10.956;2024-01-10T10:25:28;14.60;41.90
67899;DHT22;54699;51.796;10.956;2024-01-10T10:27:57;14.60;40.80
67899;DHT22;54699;51.796;10.956;2024-01-10T10:30:25;14.70;40.40
67899;DHT22;54699;51.796;10.956;2024-01-10T10:32:53;14.70;40.80
67899;DHT22;54699;51.796;10.956;2024-01-10T10:35:24;14.80;41.30
67899;DHT22;54699;51.796;10.956;2024-01-10T10:37:54;14.80;41.50
67899;DHT22;54699;51.796;10.956;2024-01-10T10:40:21;14.90;40.70
67899;DHT22;54699;51.796;10.956;2024-01-10T10:42:54;14.90;40.80
67899;DHT22;54699;51.796;10.956;2024-01-10T10:45:22;14.90;40.80
67899;DHT22;54699;51.796;10.956;2024-01-10T10:47:54;15.10;41.00
67899;DHT22;54699;51.796;10.956;2024-01-10T10:50:26;15.30;42.30
67899;DHT22;54699;51.796;10.956;2024-01-10T10:53:04;15.50;42.50
67899;DHT22;54699;51.796;10.956;2024-01-10T10:55:37;15.70;42.30
67899;DHT22;54699;51.796;10.956;2024-01-10T10:58:06;15.80;41.10
67899;DHT22;54699;51.796;10.956;2024-01-10T11:00:37;15.80;41.90
67899;DHT22;54699;51.796;10.956;2024-01-10T11:03:07;15.90;42.30
67899;DHT22;54699;51.796;10.956;2024-01-10T11:05:40;16.00;42.30
67899;DHT22;54699;51.796;10.956;2024-01-10T11:08:08;16.10;42.40
67899;DHT22;54699;51.796;10.956;2024-01-10T11:10:39;15.90;40.90
67899;DHT22;54699;51.796;10.956;2024-01-10T11:13:19;15.90;41.10
67899;DHT22;54699;51.796;10.956;2024-01-10T11:16:13;15.90;40.60
67899;DHT22;54699;51.796;10.956;2024-01-10T11:19:15;15.90;40.50
67899;DHT22;54699;51.796;10.956;2024-01-10T11:22:07;15.90;39.90
67899;DHT22;54699;51.796;10.956;2024-01-10T11:24:47;15.80;40.30
67899;DHT22;54699;51.796;10.956;2024-01-10T11:27:15;15.80;40.30
67899;DHT22;54699;51.796;10.956;2024-01-10T11:29:43;15.80;39.90
67899;DHT22;54699;51.796;10.956;2024-01-10T11:32:14;15.80;38.20
67899;DHT22;54699;51.796;10.956;2024-01-10T11:34:49;15.80;40.90
67899;DHT22;54699;51.796;10.956;2024-01-10T11:37:22;15.80;39.40
67899;DHT22;54699;51.796;10.956;2024-01-10T11:39:50;15.80;40.30
67899;DHT22;54699;51.796;10.956;2024-01-10T11:42:21;15.80;41.20
67899;DHT22;54699;51.796;10.956;2024-01-10T11:44:50;15.80;41.00
67899;DHT22;54699;51.796;10.956;2024-01-10T11:47:19;15.80;40.70
67899;DHT22;54699;51.796;10.956;2024-01-10T11:49:55;15.80;41.00
67899;DHT22;54699;51.796;10.956;2024-01-10T11:52:31;15.80;42.00
67899;DHT22;54699;51.796;10.956;2024-01-10T11:54:59;15.80;40.50
67899;DHT22;54699;51.796;10.956;2024-01-10T11:57:27;15.90;41.30
67899;DHT22;54699;51.796;10.956;2024-01-10T11:59:57;16.00;41.50
67899;DHT22;54699;51.796;10.956;2024-01-10T12:02:26;16.00;40.80
67899;DHT22;54699;51.796;10.956;2024-01-10T12:04:53;16.00;40.80
67899;DHT22;54699;51.796;10.956;2024-01-10T12:07:20;16.00;40.00
67899;DHT22;54699;51.796;10.956;2024-01-10T12:09:50;16.00;39.60
67899;DHT22;54699;51.796;10.956;2024-01-10T12:12:17;16.00;39.90
67899;DHT22;54699;51.796;10.956;2024-01-10T12:14:45;16.10;39.90
67899;DHT22;54699;51.796;10.956;2024-01-10T12:17:12;16.10;40.50
67899;DHT22;54699;51.796;10.956;2024-01-10T12:19:39;16.00;40.60
67899;DHT22;54699;51.796;10.956;2024-01-10T12:22:08;16.10;40.10
67899;DHT22;54699;51.796;10.956;2024-01-10T12:24:44;16.10;40.00
67899;DHT22;54699;51.796;10.956;2024-01-10T12:27:13;16.10;40.50
67899;DHT22;54699;51.796;10.956;2024-01-10T12:29:43;16.10;40.30
67899;DHT22;54699;51.796;10.956;2024-01-10T12:32:21;16.10;40.50
67899;DHT22;54699;51.796;10.956;2024-01-10T12:34:49;16.10;40.50
67899;DHT22;54699;51.796;10.956;2024-01-10T12:37:21;16.10;40.00
67899;DHT22;54699;51.796;10.956;2024-01-10T12:39:49;16.10;40.50
67899;DHT22;54699;51.796;10.956;2024-01-10T12:42:23;16.20;40.20
67899;DHT22;54699;51.796;10.956;2024-01-10T12:44:53;16.10;40.10
67899;DHT22;54699;51.796;10.956;2024-01-10T12:47:20;16.20;39.50
67899;DHT22;54699;51.796;10.956;2024-01-10T12:49:49;16.20;38.50
67899;DHT22;54699;51.796;10.956;2024-01-10T12:52:16;16.20;39.10
67899;DHT22;54699;51.796;10.956;2024-01-10T12:54:47;16.20;38.30
67899;DHT22;54699;51.796;10.956;2024-01-10T12:57:14;16.20;38.70
67899;DHT22;54699;51.796;10.956;2024-01-10T12:59:45;16.20;38.00
67899;DHT22;54699;51.796;10.956;2024-01-10T13:02:14;16.20;38.00
67899;DHT22;54699;51.796;10.956;2024-01-10T13:04:42;16.20;38.80
67899;DHT22;54699;51.796;10.956;2024-01-10T13:07:09;16.20;38.50
67899;DHT22;54699;51.796;10.956;2024-01-10T13:09:35;16.20;38.50
67899;DHT22;54699;51.796;10.956;2024-01-10T13:12:03;16.30;38.20
67899;DHT22;54699;51.796;10.956;2024-01-10T13:14:30;16.30;38.90
67899;DHT22;54699;51.796;10.956;2024-01-10T13:16:59;16.30;38.80
67899;DHT22;54699;51.796;10.956;2024-01-10T13:19:26;16.30;39.20
67899;DHT22;54699;51.796;10.956;2024-01-10T13:21:53;16.40;39.10
67899;DHT22;54699;51.796;10.956;2024-01-10T13:24:20;16.40;38.70
67899;DHT22;54699;51.796;10.956;2024-01-10T13:26:48;16.50;38.40
67899;DHT22;54699;51.796;10.956;2024-01-10T13:29:15;16.50;38.50
67899;DHT22;54699;51.796;10.956;2024-01-10T13:31:42;16.60;38.60
67899;DHT22;54699;51.796;10.956;2024-01-10T13:34:10;16.70;38.50
67899;DHT22;54699;51.796;10.956;2024-01-10T13:36:37;16.80;38.00
67899;DHT22;54699;51.796;10.956;2024-01-10T13:39:04;16.80;38.00
67899;DHT22;54699;51.796;10.956;2024-01-10T13:41:35;16.90;37.70
67899;DHT22;54699;51.796;10.956;2024-01-10T13:44:02;17.00;37.30
67899;DHT22;54699;51.796;10.956;2024-01-10T13:46:30;17.20;37.70
67899;DHT22;54699;51.796;10.956;2024-01-10T13:49:00;17.20;37.10
67899;DHT22;54699;51.796;10.956;2024-01-10T13:51:29;17.30;37.00
67899;DHT22;54699;51.796;10.956;2024-01-10T13:53:56;17.40;36.90
67899;DHT22;54699;51.796;10.956;2024-01-10T13:56:23;17.50;36.70
67899;DHT22;54699;51.796;10.956;2024-01-10T13:58:50;17.60;36.40
67899;DHT22;54699;51.796;10.956;2024-01-10T14:01:20;17.60;36.10
67899;DHT22;54699;51.796;10.956;2024-01-10T14:03:47;17.70;36.30
67899;DHT22;54699;51.796;10.956;2024-01-10T14:06:14;17.80;36.20
67899;DHT22;54699;51.796;10.956;2024-01-10T14:08:43;17.90;35.80
67899;DHT22;54699;51.796;10.956;2024-01-10T14:11:12;17.90;35.70
67899;DHT22;54699;51.796;10.956;2024-01-10T14:13:39;18.00;35.50
67899;DHT22;54699;51.796;10.956;2024-01-10T14:16:06;18.00;35.00
67899;DHT22;54699;51.796;10.956;2024-01-10T14:18:33;18.00;34.40
67899;DHT22;54699;51.796;10.956;2024-01-10T14:21:01;18.00;34.40
67899;DHT22;54699;51.796;10.956;2024-01-10T14:23:28;18.00;34.30
67899;DHT22;54699;51.796;10.956;2024-01-10T14:25:56;18.00;34.00
67899;DHT22;54699;51.796;10.956;2024-01-10T14:28:23;18.00;34.50
67899;DHT22;54699;51.796;10.956;2024-01-10T14:30:50;18.00;34.10
67899;DHT22;54699;51.796;10.956;2024-01-10T14:33:17;18.00;34.30
67899;DHT22;54699;51.796;10.956;2024-01-10T14:35:44;18.00;34.40
67899;DHT22;54699;51.796;10.956;2024-01-10T14:38:11;18.10;34.40
67899;DHT22;54699;51.796;10.956;2024-01-10T14:40:37;18.00;34.20
67899;DHT22;54699;51.796;10.956;2024-01-10T14:43:06;17.90;33.90
67899;DHT22;54699;51.796;10.956;2024-01-10T14:45:32;17.90;33.70
67899;DHT22;54699;51.796;10.956;2024-01-10T14:48:00;17.80;34.10
67899;DHT22;54699;51.796;10.956;2024-01-10T14:50:31;17.90;34.20
67899;DHT22;54699;51.796;10.956;2024-01-10T14:52:58;17.90;33.70
67899;DHT22;54699;51.796;10.956;2024-01-10T14:55:25;17.70;34.30
67899;DHT22;54699;51.796;10.956;2024-01-10T14:57:54;18.00;33.50
67899;DHT22;54699;51.796;10.956;2024-01-10T15:00:22;18.00;33.70
67899;DHT22;54699;51.796;10.956;2024-01-10T15:02:49;18.10;33.80
67899;DHT22;54699;51.796;10.956;2024-01-10T15:05:16;18.10;33.50
67899;DHT22;54699;51.796;10.956;2024-01-10T15:07:44;18.00;34.30
67899;DHT22;54699;51.796;10.956;2024-01-10T15:10:10;18.00;34.40
67899;DHT22;54699;51.796;10.956;2024-01-10T15:12:38;17.90;34.50
67899;DHT22;54699;51.796;10.956;2024-01-10T15:15:09;18.00;33.90
67899;DHT22;54699;51.796;10.956;2024-01-10T15:17:37;18.00;34.20
67899;DHT22;54699;51.796;10.956;2024-01-10T15:20:04;17.90;33.90
67899;DHT22;54699;51.796;10.956;2024-01-10T15:22:32;17.80;34.30